FIN188 EFHK-EFRO
Flight info
| Callsign | FIN188 |
|---|---|
| Flight time | 1h 5m |
| Altitude | 35000 |
| Route | TEVRU4N TEVRU Y75 MIMRU DCT EVSET Y86 RENVI RENVI3D |
| Aircraft | A20N/M-SDE2E3FGHIRWXY/LB1 |
Departure
| Time | 2026-05-07 18:09 |
|---|---|
| Airport | Helsinki Vantaa Airport (EFHK) |
Arrival
| Time | 2026-05-07 19:14 |
|---|---|
| Airport | Rovaniemi Airport (EFRO) |
| Time | Latitude | Longitude | Altitude | Speed | Heading |
|---|---|---|---|---|---|
| 2026-05-07 17:25 | 60.31673 | 24.96018 | 167 ft | 0 kts | 137° |
| 2026-05-07 17:30 | 60.31673 | 24.96017 | 167 ft | 0 kts | 137° |
| 2026-05-07 17:52 | 60.31675 | 24.96013 | 167 ft | 1 kts | 137° |
| 2026-05-07 17:52 | 60.31681 | 24.96002 | 167 ft | 1 kts | 137° |
| 2026-05-07 17:53 | 60.31687 | 24.95992 | 167 ft | 1 kts | 137° |
| 2026-05-07 17:53 | 60.31692 | 24.95981 | 167 ft | 1 kts | 137° |
| 2026-05-07 17:53 | 60.31698 | 24.95971 | 167 ft | 1 kts | 133° |
| 2026-05-07 17:53 | 60.31703 | 24.95959 | 168 ft | 1 kts | 108° |
| 2026-05-07 17:54 | 60.31705 | 24.95944 | 169 ft | 1 kts | 94° |
| 2026-05-07 17:54 | 60.31706 | 24.95928 | 169 ft | 1 kts | 81° |
| 2026-05-07 17:54 | 60.31704 | 24.95913 | 169 ft | 1 kts | 62° |
| 2026-05-07 17:54 | 60.31700 | 24.95900 | 169 ft | 1 kts | 48° |
| 2026-05-07 17:55 | 60.31700 | 24.95898 | 169 ft | 0 kts | 48° |
| 2026-05-07 17:57 | 60.31708 | 24.95915 | 169 ft | 3 kts | 44° |
| 2026-05-07 17:58 | 60.31734 | 24.95937 | 170 ft | 5 kts | 20° |
| 2026-05-07 17:58 | 60.31758 | 24.95967 | 170 ft | 0 kts | 38° |
| 2026-05-07 17:58 | 60.31760 | 24.95970 | 170 ft | 2 kts | 39° |
| 2026-05-07 17:58 | 60.31783 | 24.96021 | 171 ft | 7 kts | 49° |
| 2026-05-07 17:59 | 60.31813 | 24.96090 | 170 ft | 4 kts | 47° |
| 2026-05-07 17:59 | 60.31832 | 24.96123 | 169 ft | 7 kts | 34° |
| 2026-05-07 17:59 | 60.31863 | 24.96131 | 169 ft | 1 kts | 349° |
| 2026-05-07 17:59 | 60.31878 | 24.96113 | 169 ft | 4 kts | 323° |
| 2026-05-07 18:00 | 60.31900 | 24.96075 | 170 ft | 5 kts | 320° |
| 2026-05-07 18:00 | 60.31931 | 24.96021 | 171 ft | 7 kts | 319° |
| 2026-05-07 18:00 | 60.31960 | 24.95966 | 171 ft | 0 kts | 316° |
| 2026-05-07 18:01 | 60.31963 | 24.95960 | 171 ft | 6 kts | 315° |
| 2026-05-07 18:01 | 60.32017 | 24.95858 | 173 ft | 13 kts | 317° |
| 2026-05-07 18:02 | 60.32144 | 24.95625 | 173 ft | 0 kts | 314° |
| 2026-05-07 18:02 | 60.32171 | 24.95578 | 173 ft | 9 kts | 320° |
| 2026-05-07 18:02 | 60.32226 | 24.95476 | 174 ft | 12 kts | 317° |
| 2026-05-07 18:03 | 60.32292 | 24.95351 | 176 ft | 14 kts | 318° |
| 2026-05-07 18:03 | 60.32338 | 24.95281 | 177 ft | 0 kts | 328° |
| 2026-05-07 18:03 | 60.32338 | 24.95280 | 177 ft | 1 kts | 328° |
| 2026-05-07 18:03 | 60.32370 | 24.95252 | 177 ft | 8 kts | 340° |
| 2026-05-07 18:04 | 60.32436 | 24.95207 | 178 ft | 11 kts | 343° |
| 2026-05-07 18:04 | 60.32520 | 24.95154 | 180 ft | 13 kts | 342° |
| 2026-05-07 18:04 | 60.32614 | 24.95094 | 180 ft | 13 kts | 342° |
| 2026-05-07 18:04 | 60.32701 | 24.95038 | 179 ft | 15 kts | 341° |
| 2026-05-07 18:05 | 60.32790 | 24.94975 | 176 ft | 10 kts | 342° |
| 2026-05-07 18:05 | 60.32865 | 24.94931 | 174 ft | 12 kts | 341° |
| 2026-05-07 18:05 | 60.32939 | 24.94826 | 177 ft | 13 kts | 317° |
| 2026-05-07 18:05 | 60.33010 | 24.94699 | 180 ft | 14 kts | 318° |
| 2026-05-07 18:06 | 60.33051 | 24.94621 | 183 ft | 0 kts | 317° |
| 2026-05-07 18:06 | 60.33058 | 24.94608 | 184 ft | 2 kts | 317° |
| 2026-05-07 18:07 | 60.33087 | 24.94554 | 200 ft | 10 kts | 317° |
| 2026-05-07 18:07 | 60.33119 | 24.94424 | 190 ft | 9 kts | 266° |
| 2026-05-07 18:07 | 60.33103 | 24.94369 | 199 ft | 0 kts | 230° |
| 2026-05-07 18:08 | 60.33102 | 24.94366 | 198 ft | 5 kts | 229° |
| 2026-05-07 18:08 | 60.32917 | 24.93963 | 192 ft | 77 kts | 227° |
| 2026-05-07 18:08 | 60.32409 | 24.92836 | 174 ft | 137 kts | 227° |
| 2026-05-07 18:08 | 60.31717 | 24.91305 | 577 ft | 149 kts | 222° |
| 2026-05-07 18:09 | 60.30995 | 24.89778 | 1183 ft | 155 kts | 226° |
| 2026-05-07 18:09 | 60.30435 | 24.87900 | 1895 ft | 154 kts | 253° |
| 2026-05-07 18:09 | 60.30313 | 24.85706 | 2487 ft | 165 kts | 274° |
| 2026-05-07 18:09 | 60.30542 | 24.83305 | 2885 ft | 184 kts | 287° |
| 2026-05-07 18:10 | 60.31012 | 24.80743 | 3277 ft | 208 kts | 293° |
| 2026-05-07 18:10 | 60.31633 | 24.77914 | 3688 ft | 237 kts | 295° |
| 2026-05-07 18:10 | 60.32461 | 24.74878 | 3814 ft | 251 kts | 301° |
| 2026-05-07 18:10 | 60.33343 | 24.71818 | 3968 ft | 253 kts | 301° |
| 2026-05-07 18:11 | 60.34222 | 24.68700 | 4485 ft | 257 kts | 301° |
| 2026-05-07 18:11 | 60.34800 | 24.66623 | 5216 ft | 255 kts | 301° |
| 2026-05-07 18:11 | 60.36459 | 24.63265 | 6616 ft | 258 kts | 333° |
| 2026-05-07 18:11 | 60.38205 | 24.62378 | 7559 ft | 264 kts | 359° |
| 2026-05-07 18:12 | 60.40043 | 24.62983 | 8454 ft | 272 kts | 11° |
| 2026-05-07 18:12 | 60.41901 | 24.63868 | 9405 ft | 277 kts | 12° |
| 2026-05-07 18:12 | 60.43802 | 24.64775 | 10280 ft | 284 kts | 11° |
| 2026-05-07 18:12 | 60.45772 | 24.65697 | 10722 ft | 306 kts | 10° |
| 2026-05-07 18:13 | 60.47930 | 24.66689 | 11067 ft | 329 kts | 10° |
| 2026-05-07 18:13 | 60.50198 | 24.67731 | 11734 ft | 338 kts | 9° |
| 2026-05-07 18:13 | 60.52515 | 24.68801 | 12557 ft | 344 kts | 9° |
| 2026-05-07 18:13 | 60.54867 | 24.69889 | 13352 ft | 350 kts | 8° |
| 2026-05-07 18:14 | 60.57262 | 24.70996 | 14141 ft | 355 kts | 7° |
| 2026-05-07 18:14 | 60.59690 | 24.72116 | 14880 ft | 360 kts | 7° |
| 2026-05-07 18:14 | 60.62153 | 24.73252 | 15616 ft | 364 kts | 6° |
| 2026-05-07 18:14 | 60.64641 | 24.74398 | 16335 ft | 369 kts | 6° |
| 2026-05-07 18:15 | 60.67164 | 24.75565 | 17057 ft | 373 kts | 6° |
| 2026-05-07 18:15 | 60.69711 | 24.76743 | 17753 ft | 378 kts | 6° |
| 2026-05-07 18:15 | 60.72298 | 24.77942 | 18447 ft | 383 kts | 5° |
| 2026-05-07 18:15 | 60.74879 | 24.79140 | 19037 ft | 387 kts | 5° |
| 2026-05-07 18:16 | 60.77527 | 24.80371 | 19618 ft | 392 kts | 5° |
| 2026-05-07 18:16 | 60.80205 | 24.81620 | 20191 ft | 397 kts | 5° |
| 2026-05-07 18:16 | 60.82923 | 24.82720 | 20785 ft | 396 kts | 359° |
| 2026-05-07 18:16 | 60.85706 | 24.83356 | 21355 ft | 400 kts | 358° |
| 2026-05-07 18:17 | 60.88492 | 24.84004 | 21925 ft | 405 kts | 358° |
| 2026-05-07 18:17 | 60.91304 | 24.84668 | 22505 ft | 409 kts | 358° |
| 2026-05-07 18:17 | 60.94120 | 24.85338 | 23051 ft | 414 kts | 357° |
| 2026-05-07 18:17 | 60.96998 | 24.86023 | 23597 ft | 419 kts | 357° |
| 2026-05-07 18:18 | 60.99911 | 24.86718 | 24105 ft | 422 kts | 357° |
| 2026-05-07 18:18 | 61.02827 | 24.87413 | 24625 ft | 424 kts | 357° |
| 2026-05-07 18:18 | 61.05774 | 24.88114 | 25117 ft | 427 kts | 357° |
| 2026-05-07 18:18 | 61.08740 | 24.88819 | 25610 ft | 430 kts | 357° |
| 2026-05-07 18:19 | 61.11719 | 24.89529 | 26085 ft | 433 kts | 357° |
| 2026-05-07 18:19 | 61.14724 | 24.90247 | 26534 ft | 436 kts | 357° |
| 2026-05-07 18:19 | 61.17746 | 24.90973 | 27020 ft | 439 kts | 357° |
| 2026-05-07 18:19 | 61.20794 | 24.91705 | 27440 ft | 441 kts | 357° |
| 2026-05-07 18:20 | 61.23852 | 24.92438 | 27871 ft | 444 kts | 357° |
| 2026-05-07 18:20 | 61.26937 | 24.93182 | 28276 ft | 447 kts | 357° |
| 2026-05-07 18:20 | 61.30034 | 24.93934 | 28674 ft | 450 kts | 358° |
| 2026-05-07 18:20 | 61.33161 | 24.94694 | 29065 ft | 453 kts | 358° |
| 2026-05-07 18:21 | 61.36294 | 24.95456 | 29447 ft | 455 kts | 358° |
| 2026-05-07 18:21 | 61.39456 | 24.96224 | 29807 ft | 458 kts | 358° |
| 2026-05-07 18:21 | 61.42629 | 24.96996 | 30174 ft | 461 kts | 358° |
| 2026-05-07 18:21 | 61.45827 | 24.97774 | 30462 ft | 464 kts | 358° |
| 2026-05-07 18:22 | 61.49004 | 24.98553 | 30738 ft | 467 kts | 359° |
| 2026-05-07 18:22 | 61.51192 | 24.99104 | 30941 ft | 469 kts | 359° |
| 2026-05-07 18:22 | 61.55491 | 25.00188 | 31375 ft | 471 kts | 359° |
| 2026-05-07 18:22 | 61.58754 | 25.01002 | 31755 ft | 471 kts | 360° |
| 2026-05-07 18:23 | 61.62008 | 25.01648 | 32139 ft | 467 kts | 355° |
| 2026-05-07 18:23 | 61.65249 | 25.01743 | 32501 ft | 465 kts | 354° |
| 2026-05-07 18:23 | 61.68490 | 25.01851 | 32873 ft | 465 kts | 354° |
| 2026-05-07 18:23 | 61.71737 | 25.01976 | 33242 ft | 466 kts | 354° |
| 2026-05-07 18:24 | 61.74976 | 25.02101 | 33584 ft | 466 kts | 354° |
| 2026-05-07 18:24 | 61.78216 | 25.02204 | 33932 ft | 466 kts | 354° |
| 2026-05-07 18:24 | 61.81462 | 25.02296 | 34242 ft | 466 kts | 354° |
| 2026-05-07 18:24 | 61.84699 | 25.02396 | 34533 ft | 465 kts | 354° |
| 2026-05-07 18:25 | 61.87942 | 25.02506 | 34817 ft | 466 kts | 354° |
| 2026-05-07 18:25 | 61.91180 | 25.02624 | 34997 ft | 466 kts | 354° |
| 2026-05-07 18:25 | 61.94375 | 25.02747 | 35081 ft | 465 kts | 354° |
| 2026-05-07 18:26 | 62.00843 | 25.03004 | 35095 ft | 464 kts | 355° |
| 2026-05-07 18:26 | 62.07298 | 25.03262 | 35092 ft | 464 kts | 355° |
| 2026-05-07 18:27 | 62.13709 | 25.03519 | 35095 ft | 465 kts | 355° |
| 2026-05-07 18:27 | 62.20222 | 25.03773 | 35093 ft | 465 kts | 355° |
| 2026-05-07 18:28 | 62.26637 | 25.04016 | 35084 ft | 465 kts | 355° |
| 2026-05-07 18:28 | 62.33112 | 25.04265 | 35087 ft | 465 kts | 355° |
| 2026-05-07 18:29 | 62.39577 | 25.04517 | 35087 ft | 465 kts | 355° |
| 2026-05-07 18:29 | 62.46047 | 25.04771 | 35093 ft | 465 kts | 355° |
| 2026-05-07 18:30 | 62.52521 | 25.05027 | 35093 ft | 465 kts | 355° |
| 2026-05-07 18:30 | 62.58991 | 25.05282 | 35095 ft | 465 kts | 355° |
| 2026-05-07 18:31 | 62.65450 | 25.05538 | 35096 ft | 464 kts | 355° |
| 2026-05-07 18:31 | 62.71935 | 25.05791 | 35094 ft | 464 kts | 355° |
| 2026-05-07 18:32 | 62.76984 | 25.05980 | 35094 ft | 464 kts | 355° |
| 2026-05-07 18:32 | 62.81139 | 25.06142 | 35092 ft | 464 kts | 355° |
| 2026-05-07 18:33 | 62.87658 | 25.06403 | 35099 ft | 464 kts | 355° |
| 2026-05-07 18:33 | 62.94124 | 25.06666 | 35102 ft | 464 kts | 355° |
| 2026-05-07 18:34 | 63.00584 | 25.06928 | 35103 ft | 464 kts | 356° |
| 2026-05-07 18:34 | 63.07044 | 25.07189 | 35101 ft | 464 kts | 356° |
| 2026-05-07 18:35 | 63.13499 | 25.07452 | 35096 ft | 464 kts | 356° |
| 2026-05-07 18:35 | 63.19964 | 25.07717 | 35097 ft | 464 kts | 356° |
| 2026-05-07 18:36 | 63.26421 | 25.07983 | 35098 ft | 464 kts | 356° |
| 2026-05-07 18:36 | 63.32872 | 25.08785 | 35100 ft | 467 kts | 1° |
| 2026-05-07 18:37 | 63.39293 | 25.10182 | 35099 ft | 466 kts | 0° |
| 2026-05-07 18:37 | 63.45760 | 25.11559 | 35094 ft | 467 kts | 1° |
| 2026-05-07 18:38 | 63.52222 | 25.12963 | 35096 ft | 467 kts | 1° |
| 2026-05-07 18:38 | 63.58688 | 25.14381 | 35097 ft | 467 kts | 1° |
| 2026-05-07 18:39 | 63.65155 | 25.15806 | 35097 ft | 467 kts | 1° |
| 2026-05-07 18:39 | 63.71628 | 25.17238 | 35098 ft | 467 kts | 1° |
| 2026-05-07 18:40 | 63.78098 | 25.18677 | 35097 ft | 467 kts | 1° |
| 2026-05-07 18:40 | 63.84535 | 25.20115 | 35099 ft | 467 kts | 1° |
| 2026-05-07 18:41 | 63.91006 | 25.21566 | 35100 ft | 467 kts | 1° |
| 2026-05-07 18:41 | 63.97474 | 25.23024 | 35097 ft | 467 kts | 1° |
| 2026-05-07 18:42 | 64.03957 | 25.24492 | 35098 ft | 467 kts | 1° |
| 2026-05-07 18:42 | 64.10424 | 25.25964 | 35101 ft | 467 kts | 1° |
| 2026-05-07 18:43 | 64.15805 | 25.27194 | 35102 ft | 467 kts | 1° |
| 2026-05-07 18:43 | 64.22278 | 25.28681 | 35100 ft | 467 kts | 1° |
| 2026-05-07 18:44 | 64.28747 | 25.30173 | 35110 ft | 467 kts | 1° |
| 2026-05-07 18:44 | 64.35224 | 25.31673 | 35106 ft | 467 kts | 1° |
| 2026-05-07 18:45 | 64.41687 | 25.33177 | 35104 ft | 466 kts | 1° |
| 2026-05-07 18:45 | 64.48145 | 25.34686 | 35094 ft | 466 kts | 1° |
| 2026-05-07 18:46 | 64.54556 | 25.36191 | 35096 ft | 466 kts | 1° |
| 2026-05-07 18:46 | 64.61001 | 25.37711 | 35100 ft | 466 kts | 1° |
| 2026-05-07 18:47 | 64.67444 | 25.39239 | 35101 ft | 465 kts | 1° |
| 2026-05-07 18:47 | 64.73880 | 25.40813 | 35099 ft | 466 kts | 4° |
| 2026-05-07 18:48 | 64.80315 | 25.42890 | 35100 ft | 466 kts | 5° |
| 2026-05-07 18:48 | 64.86578 | 25.45333 | 35099 ft | 467 kts | 6° |
| 2026-05-07 18:49 | 64.92944 | 25.48022 | 34616 ft | 463 kts | 6° |
| 2026-05-07 18:49 | 64.96118 | 25.49381 | 34047 ft | 462 kts | 6° |
| 2026-05-07 18:49 | 64.99271 | 25.50732 | 33334 ft | 461 kts | 6° |
| 2026-05-07 18:49 | 65.02433 | 25.52089 | 32608 ft | 461 kts | 6° |
| 2026-05-07 18:50 | 65.05584 | 25.53443 | 31902 ft | 460 kts | 7° |
| 2026-05-07 18:50 | 65.08688 | 25.54780 | 31350 ft | 460 kts | 7° |
| 2026-05-07 18:50 | 65.11846 | 25.56142 | 30790 ft | 464 kts | 7° |
| 2026-05-07 18:50 | 65.15024 | 25.57516 | 30244 ft | 463 kts | 7° |
| 2026-05-07 18:51 | 65.18176 | 25.58886 | 29586 ft | 458 kts | 7° |
| 2026-05-07 18:51 | 65.21296 | 25.60244 | 28920 ft | 453 kts | 7° |
| 2026-05-07 18:51 | 65.24378 | 25.61588 | 28270 ft | 447 kts | 7° |
| 2026-05-07 18:51 | 65.27424 | 25.62919 | 27627 ft | 442 kts | 8° |
| 2026-05-07 18:52 | 65.30436 | 25.64237 | 27012 ft | 437 kts | 8° |
| 2026-05-07 18:52 | 65.33411 | 25.65542 | 26404 ft | 432 kts | 8° |
| 2026-05-07 18:52 | 65.36356 | 25.66835 | 25809 ft | 427 kts | 8° |
| 2026-05-07 18:52 | 65.39261 | 25.68113 | 25223 ft | 422 kts | 9° |
| 2026-05-07 18:53 | 65.42102 | 25.69366 | 24660 ft | 417 kts | 9° |
| 2026-05-07 18:53 | 65.44939 | 25.70619 | 24096 ft | 412 kts | 9° |
| 2026-05-07 18:53 | 65.47749 | 25.71864 | 23573 ft | 407 kts | 9° |
| 2026-05-07 18:53 | 65.50483 | 25.73082 | 23215 ft | 395 kts | 9° |
| 2026-05-07 18:54 | 65.53163 | 25.74278 | 22855 ft | 384 kts | 9° |
| 2026-05-07 18:54 | 65.55739 | 25.75430 | 22673 ft | 370 kts | 10° |
| 2026-05-07 18:54 | 65.58223 | 25.76543 | 22507 ft | 354 kts | 10° |
| 2026-05-07 18:54 | 65.60582 | 25.77602 | 22248 ft | 337 kts | 10° |
| 2026-05-07 18:55 | 65.62859 | 25.78626 | 21636 ft | 331 kts | 10° |
| 2026-05-07 18:55 | 65.65115 | 25.79642 | 20930 ft | 329 kts | 10° |
| 2026-05-07 18:55 | 65.67356 | 25.80653 | 20257 ft | 326 kts | 10° |
| 2026-05-07 18:55 | 65.69577 | 25.81657 | 19603 ft | 324 kts | 10° |
| 2026-05-07 18:56 | 65.71757 | 25.82643 | 18983 ft | 321 kts | 10° |
| 2026-05-07 18:56 | 65.73979 | 25.83652 | 18327 ft | 320 kts | 10° |
| 2026-05-07 18:56 | 65.76129 | 25.84629 | 17834 ft | 317 kts | 10° |
| 2026-05-07 18:56 | 65.78287 | 25.85611 | 17418 ft | 314 kts | 10° |
| 2026-05-07 18:57 | 65.80433 | 25.86591 | 16996 ft | 311 kts | 10° |
| 2026-05-07 18:57 | 65.82561 | 25.87564 | 16566 ft | 309 kts | 10° |
| 2026-05-07 18:57 | 65.84668 | 25.88529 | 16152 ft | 307 kts | 10° |
| 2026-05-07 18:57 | 65.86761 | 25.89490 | 15733 ft | 305 kts | 10° |
| 2026-05-07 18:58 | 65.88837 | 25.90444 | 15320 ft | 303 kts | 10° |
| 2026-05-07 18:58 | 65.90909 | 25.91396 | 14915 ft | 301 kts | 9° |
| 2026-05-07 18:58 | 65.92964 | 25.92344 | 14519 ft | 299 kts | 9° |
| 2026-05-07 18:58 | 65.95002 | 25.93283 | 14113 ft | 298 kts | 9° |
| 2026-05-07 18:59 | 65.97035 | 25.94223 | 13708 ft | 296 kts | 9° |
| 2026-05-07 18:59 | 65.99053 | 25.95157 | 13265 ft | 294 kts | 9° |
| 2026-05-07 18:59 | 66.01061 | 25.96087 | 12839 ft | 293 kts | 9° |
| 2026-05-07 18:59 | 66.03054 | 25.97012 | 12429 ft | 291 kts | 9° |
| 2026-05-07 19:00 | 66.05035 | 25.97932 | 12009 ft | 289 kts | 9° |
| 2026-05-07 19:00 | 66.07005 | 25.98849 | 11606 ft | 287 kts | 9° |
| 2026-05-07 19:00 | 66.08941 | 25.99751 | 11216 ft | 285 kts | 9° |
| 2026-05-07 19:00 | 66.10911 | 26.00671 | 10814 ft | 284 kts | 9° |
| 2026-05-07 19:01 | 66.12845 | 26.01575 | 10418 ft | 282 kts | 9° |
| 2026-05-07 19:01 | 66.14770 | 26.02478 | 10032 ft | 281 kts | 9° |
| 2026-05-07 19:01 | 66.16683 | 26.03376 | 9625 ft | 279 kts | 9° |
| 2026-05-07 19:01 | 66.18516 | 26.04237 | 9216 ft | 277 kts | 9° |
| 2026-05-07 19:02 | 66.19480 | 26.04691 | 9012 ft | 277 kts | 9° |
| 2026-05-07 19:02 | 66.21148 | 26.05477 | 8650 ft | 275 kts | 9° |
| 2026-05-07 19:02 | 66.23027 | 26.06363 | 8245 ft | 274 kts | 9° |
| 2026-05-07 19:02 | 66.24896 | 26.07244 | 7853 ft | 272 kts | 9° |
| 2026-05-07 19:03 | 66.26753 | 26.08123 | 7462 ft | 271 kts | 9° |
| 2026-05-07 19:03 | 66.28599 | 26.08997 | 7079 ft | 270 kts | 9° |
| 2026-05-07 19:03 | 66.30440 | 26.09869 | 6693 ft | 268 kts | 9° |
| 2026-05-07 19:03 | 66.32264 | 26.10737 | 6318 ft | 267 kts | 9° |
| 2026-05-07 19:04 | 66.34085 | 26.11602 | 5926 ft | 265 kts | 9° |
| 2026-05-07 19:04 | 66.35893 | 26.12462 | 5540 ft | 264 kts | 9° |
| 2026-05-07 19:04 | 66.37695 | 26.13320 | 5166 ft | 263 kts | 9° |
| 2026-05-07 19:04 | 66.39486 | 26.14175 | 4789 ft | 261 kts | 9° |
| 2026-05-07 19:05 | 66.41268 | 26.15027 | 4406 ft | 260 kts | 9° |
| 2026-05-07 19:05 | 66.43038 | 26.15875 | 4035 ft | 258 kts | 9° |
| 2026-05-07 19:05 | 66.44779 | 26.16710 | 3675 ft | 257 kts | 9° |
| 2026-05-07 19:05 | 66.46531 | 26.17552 | 3324 ft | 256 kts | 9° |
| 2026-05-07 19:06 | 66.48270 | 26.18390 | 2953 ft | 254 kts | 9° |
| 2026-05-07 19:06 | 66.51727 | 26.20056 | 2559 ft | 256 kts | 9° |
| 2026-05-07 19:06 | 66.53460 | 26.20893 | 2507 ft | 252 kts | 9° |
| 2026-05-07 19:07 | 66.55195 | 26.21729 | 2505 ft | 254 kts | 9° |
| 2026-05-07 19:07 | 66.56929 | 26.22571 | 2505 ft | 253 kts | 9° |
| 2026-05-07 19:07 | 66.58647 | 26.23406 | 2501 ft | 246 kts | 9° |
| 2026-05-07 19:07 | 66.60281 | 26.24203 | 2502 ft | 232 kts | 9° |
| 2026-05-07 19:08 | 66.61817 | 26.24953 | 2504 ft | 217 kts | 9° |
| 2026-05-07 19:08 | 66.63268 | 26.25659 | 2512 ft | 215 kts | 9° |
| 2026-05-07 19:08 | 66.64747 | 26.26144 | 2503 ft | 212 kts | 353° |
| 2026-05-07 19:08 | 66.66064 | 26.24850 | 2502 ft | 198 kts | 319° |
| 2026-05-07 19:09 | 66.66908 | 26.22324 | 2533 ft | 180 kts | 306° |
| 2026-05-07 19:09 | 66.67635 | 26.19879 | 2504 ft | 173 kts | 306° |
| 2026-05-07 19:09 | 66.68360 | 26.17488 | 2511 ft | 168 kts | 307° |
| 2026-05-07 19:09 | 66.69061 | 26.15177 | 2503 ft | 165 kts | 306° |
| 2026-05-07 19:10 | 66.69551 | 26.12609 | 2506 ft | 164 kts | 282° |
| 2026-05-07 19:10 | 66.69539 | 26.09750 | 2508 ft | 165 kts | 256° |
| 2026-05-07 19:10 | 66.69017 | 26.07215 | 2510 ft | 164 kts | 230° |
| 2026-05-07 19:10 | 66.68129 | 26.05373 | 2507 ft | 167 kts | 217° |
| 2026-05-07 19:11 | 66.67199 | 26.03624 | 2507 ft | 167 kts | 218° |
| 2026-05-07 19:11 | 66.66279 | 26.01855 | 2501 ft | 166 kts | 219° |
| 2026-05-07 19:11 | 66.65369 | 26.00055 | 2499 ft | 164 kts | 219° |
| 2026-05-07 19:11 | 66.64499 | 25.98336 | 2449 ft | 158 kts | 219° |
| 2026-05-07 19:12 | 66.63638 | 25.96666 | 2217 ft | 153 kts | 218° |
| 2026-05-07 19:12 | 66.62794 | 25.95052 | 1993 ft | 153 kts | 219° |
| 2026-05-07 19:12 | 66.61958 | 25.93456 | 1794 ft | 147 kts | 218° |
| 2026-05-07 19:12 | 66.61155 | 25.91924 | 1578 ft | 144 kts | 219° |
| 2026-05-07 19:13 | 66.60361 | 25.90398 | 1362 ft | 144 kts | 218° |
| 2026-05-07 19:13 | 66.59561 | 25.88886 | 1169 ft | 143 kts | 217° |
| 2026-05-07 19:13 | 66.58789 | 25.87449 | 947 ft | 134 kts | 218° |
| 2026-05-07 19:13 | 66.58046 | 25.86018 | 769 ft | 134 kts | 218° |
| 2026-05-07 19:14 | 66.57310 | 25.84623 | 625 ft | 130 kts | 218° |
| 2026-05-07 19:14 | 66.56701 | 25.83453 | 635 ft | 83 kts | 217° |
| 2026-05-07 19:14 | 66.56401 | 25.82883 | 638 ft | 32 kts | 217° |
| 2026-05-07 19:14 | 66.56282 | 25.82696 | 635 ft | 12 kts | 176° |
| 2026-05-07 19:15 | 66.56235 | 25.82809 | 633 ft | 11 kts | 122° |
| 2026-05-07 19:15 | 66.56219 | 25.82872 | 631 ft | 0 kts | 123° |
| 2026-05-07 19:16 | 66.56210 | 25.82906 | 630 ft | 6 kts | 123° |
| 2026-05-07 19:16 | 66.56180 | 25.83011 | 628 ft | 2 kts | 127° |
| 2026-05-07 19:16 | 66.56169 | 25.83017 | 627 ft | 3 kts | 194° |
| 2026-05-07 19:17 | 66.56140 | 25.82951 | 627 ft | 3 kts | 225° |
| 2026-05-07 19:17 | 66.56112 | 25.82881 | 626 ft | 8 kts | 221° |
| 2026-05-07 19:17 | 66.56055 | 25.82769 | 628 ft | 10 kts | 217° |
| 2026-05-07 19:17 | 66.56006 | 25.82678 | 626 ft | 9 kts | 217° |
| 2026-05-07 19:18 | 66.55965 | 25.82616 | 628 ft | 5 kts | 194° |
| 2026-05-07 19:18 | 66.55929 | 25.82639 | 628 ft | 6 kts | 159° |
| 2026-05-07 19:18 | 66.55900 | 25.82670 | 626 ft | 3 kts | 156° |
| 2026-05-07 19:18 | 66.55881 | 25.82691 | 626 ft | 2 kts | 156° |
| 2026-05-07 19:19 | 66.55870 | 25.82703 | 626 ft | 2 kts | 156° |
| 2026-05-07 19:19 | 66.55866 | 25.82707 | 626 ft | 0 kts | 155° |